createdAt,value
2022-08-12T05:32:03.066Z,99.90
2022-08-12T05:34:31.807Z,99.90
2022-08-12T05:37:00.473Z,99.90
2022-08-12T05:39:28.820Z,99.90
2022-08-12T05:41:57.736Z,99.90
2022-08-12T05:44:25.823Z,99.90
2022-08-12T05:46:53.905Z,99.90
2022-08-12T05:49:23.324Z,99.90
2022-08-12T05:51:51.421Z,99.90
2022-08-12T05:54:21.990Z,99.90
2022-08-12T05:57:03.642Z,99.90
2022-08-12T05:59:32.539Z,99.90
2022-08-12T06:02:09.383Z,99.90
2022-08-12T06:04:42.366Z,99.90
2022-08-12T06:08:00.241Z,99.90
2022-08-12T06:10:00.887Z,99.90
2022-08-12T06:12:29.114Z,99.90
2022-08-12T06:14:57.179Z,99.90
2022-08-12T06:17:25.506Z,99.90
2022-08-12T06:20:27.181Z,99.90
2022-08-12T06:22:43.821Z,99.90
2022-08-12T06:25:17.560Z,99.90
2022-08-12T06:28:07.606Z,99.90
2022-08-12T06:30:39.023Z,99.90
2022-08-12T06:33:22.134Z,99.90
2022-08-12T06:35:57.258Z,99.90
2022-08-12T06:38:27.880Z,99.90
2022-08-12T06:41:16.238Z,99.90
2022-08-12T06:44:06.166Z,99.90
2022-08-12T06:46:36.944Z,99.90
2022-08-12T06:49:06.910Z,99.90
2022-08-12T06:51:36.544Z,99.90
2022-08-12T06:54:04.823Z,99.90
2022-08-12T06:57:02.406Z,99.90
2022-08-12T06:59:22.722Z,99.90
2022-08-12T07:01:51.993Z,99.90
2022-08-12T07:04:38.377Z,99.90
2022-08-12T07:07:09.103Z,99.90
2022-08-12T07:10:03.763Z,99.90
2022-08-12T07:12:28.156Z,99.90
2022-08-12T07:14:57.136Z,99.90
2022-08-12T07:17:25.190Z,99.90
2022-08-12T07:19:56.127Z,99.90
2022-08-12T07:22:27.620Z,99.90
2022-08-12T07:25:09.552Z,99.90
2022-08-12T07:27:40.758Z,99.90
2022-08-12T07:30:10.940Z,99.90
2022-08-12T07:32:40.231Z,99.90
2022-08-12T07:35:09.145Z,99.90
2022-08-12T07:37:43.000Z,99.90
2022-08-12T07:40:12.908Z,99.90
2022-08-12T07:42:41.059Z,99.90
2022-08-12T07:45:10.158Z,99.90
2022-08-12T07:47:40.048Z,99.90
2022-08-12T07:50:09.480Z,99.90
2022-08-12T07:52:39.438Z,99.90
2022-08-12T07:55:10.268Z,99.90
2022-08-12T07:57:50.410Z,99.90
2022-08-12T08:00:18.863Z,99.90
2022-08-12T08:02:46.931Z,99.90
2022-08-12T08:05:15.509Z,99.90
2022-08-12T08:07:43.728Z,99.90
2022-08-12T08:10:13.856Z,99.90
2022-08-12T08:12:58.806Z,99.90
2022-08-12T08:16:00.612Z,99.90
2022-08-12T08:18:26.516Z,99.90
2022-08-12T08:20:57.441Z,99.90
2022-08-12T08:23:56.069Z,99.90
2022-08-12T08:26:27.207Z,99.90
2022-08-12T08:28:55.422Z,99.90
2022-08-12T08:31:23.471Z,99.90
2022-08-12T08:34:09.052Z,99.90
2022-08-12T08:36:40.077Z,99.90
2022-08-12T08:39:08.331Z,99.90
2022-08-12T08:42:17.582Z,99.90
2022-08-12T08:44:45.033Z,99.90
2022-08-12T08:47:14.197Z,99.90
2022-08-12T08:49:42.551Z,99.90
2022-08-12T08:52:12.433Z,99.90
2022-08-12T08:55:00.394Z,99.90
2022-08-12T09:00:19.538Z,99.90
2022-08-12T09:02:59.181Z,99.90
2022-08-12T09:06:01.821Z,99.90
2022-08-12T09:08:23.074Z,99.90
2022-08-12T09:10:59.794Z,99.90
2022-08-12T09:13:29.246Z,99.90
2022-08-12T09:16:20.051Z,99.30
2022-08-12T09:18:52.525Z,99.30
2022-08-12T09:24:10.412Z,98.40
2022-08-12T09:26:46.510Z,96.80
2022-08-12T09:29:20.301Z,96.50
2022-08-12T09:32:11.590Z,95.50
2022-08-12T09:34:57.699Z,94.60
2022-08-12T09:37:26.650Z,93.50
2022-08-12T09:40:04.631Z,93.40
2022-08-12T09:43:17.054Z,93.20
2022-08-12T09:46:06.782Z,93.00
2022-08-12T09:48:39.237Z,91.60
2022-08-12T09:51:17.106Z,91.70
2022-08-12T09:54:08.789Z,91.10
2022-08-12T09:56:58.210Z,90.60
2022-08-12T10:00:17.559Z,89.30
2022-08-12T10:02:45.601Z,88.60
2022-08-12T10:05:09.375Z,86.40
2022-08-12T10:07:42.086Z,85.50
2022-08-12T10:10:22.676Z,84.30
2022-08-12T10:13:10.610Z,82.20
2022-08-12T10:16:03.042Z,81.40
2022-08-12T10:18:35.204Z,81.30
2022-08-12T10:21:07.189Z,78.90
2022-08-12T10:23:40.475Z,78.30
2022-08-12T10:26:37.787Z,77.90
2022-08-12T10:30:03.198Z,78.30
2022-08-12T10:32:56.350Z,75.80
2022-08-12T10:35:11.028Z,75.90
2022-08-12T10:38:33.281Z,74.50
2022-08-12T10:40:31.979Z,74.10
2022-08-12T10:43:18.511Z,74.10
2022-08-12T10:45:49.768Z,72.70
2022-08-12T10:48:26.555Z,72.40
2022-08-12T10:52:04.570Z,72.50
2022-08-12T10:54:00.384Z,72.10
2022-08-12T10:56:34.779Z,72.10
2022-08-12T10:59:05.181Z,70.50
2022-08-12T11:04:20.793Z,70.50
2022-08-12T11:04:35.443Z,69.50
2022-08-12T11:08:37.319Z,68.10
2022-08-12T11:10:01.653Z,69.00
2022-08-12T11:12:56.759Z,68.70
2022-08-12T11:15:32.972Z,68.20
2022-08-12T11:18:12.078Z,68.40
2022-08-12T11:20:48.397Z,68.50
2022-08-12T11:23:35.880Z,66.60
2022-08-12T11:26:07.609Z,65.10
2022-08-12T11:28:38.252Z,65.00
2022-08-12T11:31:10.130Z,65.70
2022-08-12T11:34:06.625Z,65.60
2022-08-12T11:36:29.695Z,64.70
2022-08-12T11:39:04.297Z,64.90
2022-08-12T11:41:33.214Z,64.00
2022-08-12T11:44:31.987Z,63.40
2022-08-12T11:46:51.276Z,63.00
2022-08-12T11:49:31.047Z,61.80
2022-08-12T11:52:01.542Z,62.80
2022-08-12T11:54:33.521Z,60.40
2022-08-12T11:58:08.682Z,60.70
2022-08-12T12:02:38.722Z,61.50
2022-08-12T12:05:07.935Z,61.10
2022-08-12T12:08:38.852Z,60.20
2022-08-12T12:10:28.898Z,60.50
2022-08-12T12:12:56.887Z,60.00
2022-08-12T12:15:40.933Z,60.20
2022-08-12T12:18:22.361Z,59.10
2022-08-12T12:21:00.306Z,59.70
2022-08-12T12:23:30.898Z,59.30
2022-08-12T12:26:08.246Z,59.10
2022-08-12T12:28:41.513Z,59.10
2022-08-12T12:32:10.109Z,58.10
2022-08-12T12:34:12.212Z,58.50
2022-08-12T12:37:00.827Z,58.10
2022-08-12T12:39:29.228Z,58.40
2022-08-12T12:42:45.646Z,58.70
2022-08-12T12:45:19.653Z,58.40
2022-08-12T12:47:56.179Z,58.20
2022-08-12T12:50:34.704Z,58.40
2022-08-12T12:53:03.854Z,57.50
2022-08-12T12:55:35.992Z,57.20
2022-08-12T12:58:11.355Z,57.70
2022-08-12T13:00:51.058Z,57.70
2022-08-12T13:03:19.435Z,57.20
2022-08-12T13:05:53.560Z,57.90
2022-08-12T13:08:28.607Z,57.70
2022-08-12T13:11:07.546Z,57.50
2022-08-12T13:14:07.707Z,57.00
2022-08-12T13:16:29.387Z,57.40
2022-08-12T13:18:58.326Z,58.00
2022-08-12T13:21:33.314Z,58.00
2022-08-12T13:24:09.857Z,57.50
2022-08-12T13:26:40.136Z,56.70
2022-08-12T13:29:11.673Z,56.60
2022-08-12T13:32:13.475Z,56.80
2022-08-12T13:34:34.776Z,56.90
2022-08-12T13:37:09.183Z,56.70
2022-08-12T13:39:37.950Z,56.90
2022-08-12T13:42:13.888Z,57.30
2022-08-12T13:44:44.271Z,57.40
2022-08-12T13:47:19.695Z,57.10
2022-08-12T13:49:55.354Z,57.40
2022-08-12T13:52:24.360Z,57.20
2022-08-12T13:54:54.155Z,58.20
2022-08-12T13:57:26.463Z,55.80
2022-08-12T14:00:00.696Z,56.00
2022-08-12T14:02:29.787Z,56.10
2022-08-12T14:04:57.765Z,56.40
2022-08-12T14:07:27.493Z,55.90
2022-08-12T14:10:16.646Z,56.00
2022-08-12T14:12:53.986Z,55.90
2022-08-12T14:15:35.098Z,56.60
2022-08-12T14:18:23.427Z,57.00
2022-08-12T14:20:58.507Z,56.90
2022-08-12T14:24:05.685Z,57.20
2022-08-12T14:26:21.472Z,56.80
2022-08-12T14:28:57.532Z,56.90
2022-08-12T14:31:32.462Z,57.10
2022-08-12T14:34:05.111Z,57.70
2022-08-12T14:36:33.312Z,56.40
2022-08-12T14:39:06.053Z,56.90
2022-08-12T14:41:36.909Z,56.20
2022-08-12T14:45:00.001Z,56.10
2022-08-12T14:47:08.768Z,56.20
2022-08-12T14:50:33.598Z,56.10
2022-08-12T14:52:55.868Z,56.50
2022-08-12T14:58:03.677Z,57.00
2022-08-12T15:00:52.232Z,57.20
2022-08-12T15:03:52.884Z,56.70
2022-08-12T15:06:43.613Z,56.20
2022-08-12T15:09:11.876Z,56.80
2022-08-12T15:11:55.016Z,56.50
2022-08-12T15:14:25.452Z,56.90
2022-08-12T15:16:54.157Z,56.70
2022-08-12T15:20:11.905Z,56.20
2022-08-12T15:22:37.556Z,55.90
2022-08-12T15:24:59.718Z,55.50
2022-08-12T15:28:11.024Z,56.10
2022-08-12T15:30:22.630Z,56.60
2022-08-12T15:32:51.268Z,56.60
2022-08-12T15:35:21.999Z,57.00
2022-08-12T15:38:09.935Z,57.70
2022-08-12T15:40:46.665Z,57.50
2022-08-12T15:43:52.135Z,56.80
2022-08-12T15:46:15.393Z,56.80
2022-08-12T15:48:47.104Z,56.60
2022-08-12T15:51:57.609Z,57.10
2022-08-12T15:54:33.667Z,56.80
2022-08-12T15:57:05.559Z,57.20
2022-08-12T16:00:02.364Z,57.20
2022-08-12T16:02:22.016Z,57.60
2022-08-12T16:04:51.442Z,57.40
2022-08-12T16:07:25.939Z,56.80
2022-08-12T16:10:05.736Z,56.90
2022-08-12T16:12:39.537Z,57.20
2022-08-12T16:15:08.581Z,56.70
2022-08-12T16:18:20.332Z,56.90
2022-08-12T16:20:27.847Z,57.20
2022-08-12T16:23:26.788Z,57.20
2022-08-12T16:26:05.278Z,58.00
2022-08-12T16:28:42.574Z,57.90
2022-08-12T16:31:18.719Z,57.10
2022-08-12T16:33:59.186Z,56.90
2022-08-12T16:36:29.415Z,56.80
2022-08-12T16:39:01.864Z,56.70
2022-08-12T16:41:38.020Z,57.00
2022-08-12T16:44:08.487Z,57.40
2022-08-12T16:46:37.662Z,57.80
2022-08-12T16:49:13.300Z,58.20
2022-08-12T16:51:46.449Z,57.50
2022-08-12T16:54:18.511Z,57.00
2022-08-12T16:56:55.507Z,57.50
2022-08-12T16:59:30.882Z,57.40
2022-08-12T17:02:18.135Z,57.70
2022-08-12T17:05:03.634Z,58.10
2022-08-12T17:07:36.241Z,58.30
2022-08-12T17:10:08.891Z,58.50
2022-08-12T17:12:38.302Z,58.50
2022-08-12T17:15:21.393Z,58.40
2022-08-12T17:18:42.397Z,58.30
2022-08-12T17:20:48.172Z,59.30
2022-08-12T17:23:19.374Z,58.80
2022-08-12T17:25:53.007Z,59.20
2022-08-12T17:28:22.828Z,59.50
2022-08-12T17:30:59.975Z,59.40
2022-08-12T17:33:33.681Z,59.20
2022-08-12T17:36:05.518Z,59.30
2022-08-12T17:38:35.076Z,58.70
2022-08-12T17:41:22.712Z,58.70
2022-08-12T17:43:58.479Z,59.00
2022-08-12T17:46:33.381Z,59.00
2022-08-12T17:49:18.904Z,59.00
2022-08-12T17:52:02.602Z,58.80
2022-08-12T17:54:33.209Z,59.00
2022-08-12T17:57:16.074Z,59.20
2022-08-12T17:59:48.530Z,59.20
2022-08-12T18:02:25.507Z,59.70
2022-08-12T18:05:09.714Z,59.60
2022-08-12T18:07:39.492Z,59.70
2022-08-12T18:10:08.726Z,60.10
2022-08-12T18:12:40.133Z,60.00
2022-08-12T18:15:11.632Z,59.90
2022-08-12T18:17:59.251Z,60.00
2022-08-12T18:20:28.786Z,60.20
2022-08-12T18:22:59.566Z,61.50
2022-08-12T18:26:14.702Z,61.50
2022-08-12T18:28:42.975Z,61.00
2022-08-12T18:31:13.473Z,61.20
2022-08-12T18:33:46.055Z,61.80
2022-08-12T18:36:22.625Z,62.00
2022-08-12T18:38:56.126Z,63.00
2022-08-12T18:41:34.506Z,62.00
2022-08-12T18:44:08.026Z,62.20
2022-08-12T18:46:47.343Z,62.10
2022-08-12T18:49:20.652Z,62.60
2022-08-12T18:51:55.585Z,62.70
2022-08-12T18:54:34.056Z,63.20
2022-08-12T18:57:05.056Z,63.30
2022-08-12T19:00:02.533Z,63.40
2022-08-12T19:02:26.484Z,64.00
2022-08-12T19:04:57.367Z,63.80
2022-08-12T19:07:29.851Z,64.10
2022-08-12T19:10:18.198Z,64.50
2022-08-12T19:13:09.255Z,66.20
2022-08-12T19:15:43.216Z,66.20
2022-08-12T19:18:17.480Z,66.90
2022-08-12T19:20:50.382Z,66.50
2022-08-12T19:23:21.171Z,66.10
2022-08-12T19:26:01.024Z,66.50
2022-08-12T19:28:34.621Z,67.20
2022-08-12T19:31:55.650Z,67.10
2022-08-12T19:34:56.429Z,66.80
2022-08-12T19:37:20.108Z,67.70
2022-08-12T19:40:10.122Z,67.90
2022-08-12T19:42:44.481Z,67.80
2022-08-12T19:45:15.815Z,67.90
2022-08-12T19:47:46.681Z,68.30
2022-08-12T19:50:20.159Z,68.60
2022-08-12T19:52:51.394Z,68.50
2022-08-12T19:55:23.396Z,68.90
2022-08-12T19:58:02.866Z,69.10
2022-08-12T20:00:34.893Z,69.40
2022-08-12T20:03:06.545Z,69.30
2022-08-12T20:06:05.994Z,69.90
2022-08-12T20:08:33.975Z,70.00
2022-08-12T20:12:08.991Z,70.30
2022-08-12T20:14:00.999Z,70.50
2022-08-12T20:16:56.387Z,70.70
2022-08-12T20:19:52.391Z,71.10
2022-08-12T20:22:23.441Z,71.60
2022-08-12T20:24:55.406Z,72.20
2022-08-12T20:27:53.675Z,72.80
2022-08-12T20:30:15.062Z,73.20
2022-08-12T20:32:54.033Z,73.40
2022-08-12T20:35:26.235Z,74.80
2022-08-12T20:38:26.396Z,74.90
2022-08-12T20:40:55.990Z,75.50
2022-08-12T20:43:28.455Z,75.80
2022-08-12T20:46:00.306Z,77.40
2022-08-12T20:48:29.547Z,76.70
2022-08-12T20:51:04.230Z,77.50
2022-08-12T20:53:53.933Z,77.90
2022-08-12T20:56:30.398Z,78.90
2022-08-12T20:59:01.193Z,79.20
2022-08-12T21:01:46.047Z,79.80
2022-08-12T21:04:34.135Z,80.40
2022-08-12T21:07:09.021Z,81.10
2022-08-12T21:09:41.463Z,81.80
2022-08-12T21:12:31.391Z,82.30
2022-08-12T21:15:17.289Z,82.80
2022-08-12T21:18:00.694Z,83.10
2022-08-12T21:20:37.980Z,83.50
2022-08-12T21:23:07.605Z,83.90
2022-08-12T21:25:45.385Z,84.10
2022-08-12T21:28:14.364Z,84.60
2022-08-12T21:30:54.841Z,84.90
2022-08-12T21:33:31.920Z,85.00
2022-08-12T21:36:02.622Z,85.90
2022-08-12T21:38:40.340Z,86.20
2022-08-12T21:41:15.632Z,86.50
2022-08-12T21:43:45.096Z,87.00
2022-08-12T21:46:34.584Z,87.30
2022-08-12T21:49:05.586Z,88.10
2022-08-12T21:51:35.331Z,88.80
2022-08-12T21:54:21.612Z,89.10
2022-08-12T21:56:53.703Z,89.90
2022-08-12T21:59:22.788Z,90.10
2022-08-12T22:01:51.463Z,90.50
2022-08-12T22:04:37.339Z,90.90
2022-08-12T22:07:06.942Z,91.30
2022-08-12T22:09:42.808Z,91.30
2022-08-12T22:12:30.022Z,91.60
2022-08-12T22:14:58.255Z,92.00
2022-08-12T22:17:49.391Z,92.10
2022-08-12T22:20:21.639Z,92.00
2022-08-12T22:22:56.408Z,92.40
2022-08-12T22:25:27.948Z,92.80
2022-08-12T22:28:13.601Z,93.00
2022-08-12T22:31:01.568Z,93.20
2022-08-12T22:33:29.690Z,93.70
2022-08-12T22:36:24.304Z,94.20
2022-08-12T22:38:58.744Z,94.70
2022-08-12T22:41:46.307Z,94.50
